Time;durP1;ratioP1;P1;durP2;ratioP2;P2;SDS_P1;SDS_P2;PMS_P1;PMS_P2;Temp;Humidity;BMP_temperature;BMP_pressure;BME280_temperature;BME280_humidity;BME280_pressure;Samples;Min_cycle;Max_cycle;Signal;HPM_P1;HPM_P2
2023/01/30 00:00:29;;;;;;;19.30;10.13;;;6.80;99.90;;;;;;5122547;27;20039;-61
2023/01/30 00:02:55;;;;;;;22.88;9.73;;;6.90;99.90;;;;;;5134201;27;20051;-62
2023/01/30 00:05:21;;;;;;;15.60;9.27;;;6.90;99.90;;;;;;5134395;27;20035;-62
2023/01/30 00:07:46;;;;;;;20.35;9.60;;;7.00;99.90;;;;;;5134223;27;20035;-61
2023/01/30 00:10:12;;;;;;;23.15;10.00;;;7.10;99.90;;;;;;5134296;27;20035;-62
2023/01/30 00:12:38;;;;;;;22.75;9.57;;;7.00;99.90;;;;;;5133792;27;20481;-61
2023/01/30 00:15:04;;;;;;;21.15;8.68;;;7.10;99.90;;;;;;5134165;27;20472;-62
2023/01/30 00:17:30;;;;;;;18.95;9.82;;;7.10;99.90;;;;;;5130198;27;20524;-62
2023/01/30 00:19:56;;;;;;;18.88;9.35;;;7.00;99.90;;;;;;5104898;27;20505;-61
2023/01/30 00:22:21;;;;;;;18.55;8.40;;;7.00;99.90;;;;;;5115572;27;20374;-61
2023/01/30 00:24:47;;;;;;;22.13;8.65;;;6.90;99.90;;;;;;5133982;27;20463;-61
2023/01/30 00:27:13;;;;;;;23.33;9.55;;;7.00;99.90;;;;;;5133593;27;20378;-62
2023/01/30 00:29:38;;;;;;;16.83;8.02;;;7.00;99.90;;;;;;5133543;27;20041;-61
2023/01/30 00:32:04;;;;;;;17.67;7.53;;;7.10;99.90;;;;;;5133574;27;20431;-61
2023/01/30 00:34:30;;;;;;;14.48;7.47;;;7.00;99.90;;;;;;5133271;27;20070;-61
2023/01/30 00:36:55;;;;;;;16.30;6.80;;;7.10;99.90;;;;;;5133607;27;20027;-62
2023/01/30 00:39:21;;;;;;;16.67;7.43;;;7.20;99.90;;;;;;5114711;27;20049;-62
2023/01/30 00:47:35;;;;;;;17.33;7.38;;;7.10;99.90;;;;;;5070037;28;20090;-62
2023/01/30 00:50:00;;;;;;;16.02;7.70;;;7.00;99.90;;;;;;5069845;28;20045;-61
2023/01/30 00:52:26;;;;;;;18.55;8.45;;;7.00;99.90;;;;;;5069559;28;20479;-61
2023/01/30 00:54:51;;;;;;;19.02;7.72;;;7.00;99.90;;;;;;5069856;28;20064;-62
2023/01/30 00:57:17;;;;;;;18.02;7.88;;;7.10;99.90;;;;;;5069735;28;20078;-61
2023/01/30 00:59:42;;;;;;;16.95;8.13;;;7.00;99.90;;;;;;5069802;28;20048;-61
2023/01/30 01:02:08;;;;;;;21.23;6.90;;;7.00;99.90;;;;;;5069758;28;20407;-62
2023/01/30 01:04:42;;;;;;;19.05;7.75;;;7.00;99.90;;;;;;5069525;28;20076;-61
2023/01/30 01:07:08;;;;;;;16.33;6.75;;;6.90;99.90;;;;;;5069720;28;20040;-61
2023/01/30 01:09:34;;;;;;;14.95;7.03;;;7.00;99.90;;;;;;5069135;28;20565;-61
2023/01/30 01:12:00;;;;;;;17.58;7.63;;;6.70;99.90;;;;;;5069843;28;20037;-62
2023/01/30 01:14:25;;;;;;;13.90;7.10;;;6.80;99.90;;;;;;5070453;28;20044;-62
2023/01/30 01:16:51;;;;;;;13.25;6.50;;;6.70;99.90;;;;;;5129757;27;20039;-62
2023/01/30 01:19:17;;;;;;;17.40;6.85;;;6.90;99.90;;;;;;5099514;27;20047;-61
2023/01/30 01:21:42;;;;;;;11.98;6.53;;;6.90;99.90;;;;;;5132999;27;20077;-62
2023/01/30 01:24:11;;;;;;;11.20;5.85;;;6.70;99.90;;;;;;5132845;27;20038;-61
2023/01/30 01:26:37;;;;;;;13.15;6.35;;;6.60;99.90;;;;;;5132682;27;20492;-63
2023/01/30 01:29:02;;;;;;;15.57;6.13;;;6.60;99.90;;;;;;5132695;27;20035;-62
2023/01/30 01:31:28;;;;;;;12.38;6.07;;;6.90;99.90;;;;;;5132740;27;20088;-61
2023/01/30 01:33:54;;;;;;;13.57;6.00;;;6.90;99.90;;;;;;5132368;27;20046;-62
2023/01/30 01:36:20;;;;;;;11.93;6.07;;;7.00;99.90;;;;;;5132663;28;20030;-63
2023/01/30 01:38:45;;;;;;;11.90;5.38;;;6.80;99.90;;;;;;5132848;28;20087;-61
2023/01/30 01:41:12;;;;;;;11.57;5.07;;;6.80;99.90;;;;;;5114315;28;20043;-62
2023/01/30 01:44:04;;;;;;;12.45;5.90;;;7.00;99.90;;;;;;5132554;28;20446;-61
2023/01/30 01:46:35;;;;;;;11.35;5.68;;;7.00;99.90;;;;;;5114511;28;20040;-62
2023/01/30 01:49:06;;;;;;;14.05;5.55;;;6.80;99.90;;;;;;5111868;28;20032;-62
2023/01/30 01:51:40;;;;;;;11.95;5.25;;;6.70;99.90;;;;;;5115551;28;20039;-62
2023/01/30 01:54:11;;;;;;;12.10;5.75;;;6.90;99.90;;;;;;5124463;28;20035;-62
2023/01/30 01:56:42;;;;;;;14.98;5.72;;;6.70;99.90;;;;;;5120281;28;20034;-62
2023/01/30 01:59:30;;;;;;;17.35;7.00;;;6.80;99.90;;;;;;5130444;28;20469;-62
2023/01/30 02:02:02;;;;;;;15.45;6.35;;;6.90;99.90;;;;;;5049146;28;20049;-62
2023/01/30 02:07:19;;;;;;;20.65;8.13;;;7.00;99.90;;;;;;5051763;28;20045;-61
2023/01/30 02:09:44;;;;;;;25.63;7.93;;;6.90;99.90;;;;;;5053168;28;20041;-61
2023/01/30 02:12:11;;;;;;;20.65;8.15;;;6.90;99.90;;;;;;5052996;28;20052;-62
2023/01/30 02:14:38;;;;;;;25.58;7.70;;;7.10;99.90;;;;;;5052894;28;20117;-62
2023/01/30 02:17:03;;;;;;;22.05;7.75;;;7.00;99.90;;;;;;5052950;28;20136;-62
2023/01/30 02:19:52;;;;;;;19.88;7.25;;;6.90;99.90;;;;;;5052772;28;20410;-63
2023/01/30 02:22:42;;;;;;;26.67;8.57;;;6.90;99.90;;;;;;5052701;28;20060;-62
2023/01/30 02:25:34;;;;;;;27.70;7.47;;;6.90;99.90;;;;;;5052766;28;20145;-62
2023/01/30 02:28:27;;;;;;;24.10;7.53;;;7.10;99.90;;;;;;4973730;28;20054;-62
2023/01/30 02:31:11;;;;;;;28.13;8.20;;;7.00;99.90;;;;;;4974207;28;20054;-61
2023/01/30 02:34:04;;;;;;;22.45;7.65;;;7.00;99.90;;;;;;4973752;28;20047;-62
2023/01/30 02:36:50;;;;;;;20.80;6.47;;;6.90;99.90;;;;;;4973596;28;20532;-62
2023/01/30 02:39:20;;;;;;;18.73;6.60;;;7.00;99.90;;;;;;5022320;28;20528;-62
2023/01/30 02:42:18;;;;;;;34.60;7.93;;;6.90;99.90;;;;;;5052281;28;20045;-62
2023/01/30 02:44:58;;;;;;;24.67;6.25;;;7.00;99.90;;;;;;5051943;28;20423;-61
2023/01/30 02:47:37;;;;;;;26.13;6.80;;;7.10;99.90;;;;;;5052304;28;20049;-62
2023/01/30 02:50:19;;;;;;;20.95;6.43;;;7.20;99.90;;;;;;5052190;28;20051;-62
2023/01/30 02:52:46;;;;;;;25.38;6.05;;;7.20;99.90;;;;;;5052103;28;20056;-62
2023/01/30 02:55:24;;;;;;;28.95;6.85;;;7.10;99.90;;;;;;5066371;28;20395;-61
2023/01/30 02:57:51;;;;;;;25.23;5.65;;;7.30;99.90;;;;;;5041912;28;20052;-61
2023/01/30 03:00:23;;;;;;;27.38;5.25;;;7.10;99.90;;;;;;5052249;28;20134;-62
2023/01/30 03:03:10;;;;;;;21.98;5.55;;;7.10;99.90;;;;;;5051857;28;20041;-62
2023/01/30 03:05:48;;;;;;;22.98;5.07;;;7.10;99.90;;;;;;5101249;27;20058;-62
2023/01/30 03:08:33;;;;;;;29.00;5.78;;;7.30;99.90;;;;;;5135261;27;20039;-62
2023/01/30 03:11:05;;;;;;;25.40;4.88;;;7.30;99.90;;;;;;5135050;27;20493;-62
2023/01/30 03:14:03;;;;;;;22.13;5.35;;;7.30;99.90;;;;;;5135219;27;20051;-62
2023/01/30 03:16:38;;;;;;;21.52;4.75;;;7.30;99.90;;;;;;5123105;27;20035;-62
2023/01/30 03:19:08;;;;;;;16.60;4.20;;;7.20;99.90;;;;;;5133955;27;20031;-62
2023/01/30 03:21:43;;;;;;;20.27;4.35;;;7.20;99.90;;;;;;5135176;27;20198;-62
2023/01/30 03:24:09;;;;;;;23.63;6.07;;;7.30;99.90;;;;;;5134663;27;20043;-62
2023/01/30 03:26:39;;;;;;;21.70;5.13;;;7.10;99.90;;;;;;5134849;27;20066;-62
2023/01/30 03:29:05;;;;;;;19.77;4.90;;;7.10;99.90;;;;;;5135029;27;20035;-61
2023/01/30 03:31:31;;;;;;;24.55;4.18;;;7.00;99.90;;;;;;5134607;27;20042;-62
2023/01/30 03:33:56;;;;;;;19.90;4.10;;;7.00;99.90;;;;;;5134757;27;20039;-62
2023/01/30 03:36:22;;;;;;;26.05;4.70;;;7.00;99.90;;;;;;5134579;27;20031;-62
2023/01/30 03:38:50;;;;;;;32.05;4.93;;;7.00;99.90;;;;;;5134698;27;20031;-62
2023/01/30 03:41:16;;;;;;;24.05;4.80;;;6.90;99.90;;;;;;5134405;27;20452;-61
2023/01/30 03:43:42;;;;;;;23.05;4.88;;;6.80;99.90;;;;;;5134383;27;20055;-62
2023/01/30 03:46:07;;;;;;;21.63;4.07;;;6.80;99.90;;;;;;5134458;27;20047;-62
2023/01/30 03:48:33;;;;;;;18.65;4.22;;;6.80;99.90;;;;;;5134849;27;20034;-62
2023/01/30 03:50:59;;;;;;;17.05;4.43;;;6.70;99.90;;;;;;5134500;27;20027;-62
2023/01/30 03:53:24;;;;;;;21.02;5.22;;;6.70;99.90;;;;;;5134210;27;20054;-62
2023/01/30 03:55:50;;;;;;;21.63;4.53;;;6.60;99.90;;;;;;5126365;27;20051;-61
2023/01/30 03:58:16;;;;;;;20.67;3.97;;;6.60;99.90;;;;;;5109291;27;20043;-62
2023/01/30 04:00:41;;;;;;;29.95;4.93;;;6.60;99.90;;;;;;5134138;27;20031;-61
2023/01/30 04:03:07;;;;;;;20.48;4.30;;;6.60;99.90;;;;;;5134078;27;20071;-62
2023/01/30 04:05:32;;;;;;;22.05;4.57;;;6.60;99.90;;;;;;5115171;27;20542;-61
2023/01/30 04:07:58;;;;;;;28.25;5.60;;;6.60;99.90;;;;;;5134151;27;20039;-62
2023/01/30 04:10:25;;;;;;;28.20;5.18;;;6.50;99.90;;;;;;5133679;27;20035;-62
2023/01/30 04:12:51;;;;;;;28.05;4.40;;;6.40;99.90;;;;;;5134145;27;20035;-62
2023/01/30 04:15:16;;;;;;;27.58;4.25;;;6.50;99.90;;;;;;5134033;27;20399;-62
2023/01/30 04:17:43;;;;;;;28.48;5.93;;;6.50;99.90;;;;;;5133774;27;20027;-62
2023/01/30 04:20:09;;;;;;;20.98;4.55;;;6.40;99.90;;;;;;5133897;27;20046;-62
2023/01/30 04:22:35;;;;;;;22.98;4.57;;;6.40;99.90;;;;;;5133573;27;20072;-61
2023/01/30 04:25:01;;;;;;;23.92;4.68;;;6.40;99.90;;;;;;5133683;27;20035;-61
2023/01/30 04:27:27;;;;;;;21.05;3.92;;;6.30;99.90;;;;;;5133764;27;20067;-61
2023/01/30 04:29:52;;;;;;;25.02;4.57;;;6.30;99.90;;;;;;5133717;27;20117;-62
2023/01/30 04:32:18;;;;;;;21.33;5.13;;;6.20;99.90;;;;;;5133620;27;20083;-62
2023/01/30 04:34:44;;;;;;;26.90;4.53;;;6.30;99.90;;;;;;5133528;27;20091;-61
2023/01/30 04:37:11;;;;;;;28.20;4.22;;;6.20;99.90;;;;;;5133458;27;20031;-62
2023/01/30 04:39:36;;;;;;;23.40;4.18;;;6.20;99.90;;;;;;5133752;27;20035;-62
2023/01/30 04:42:03;;;;;;;37.83;4.90;;;6.20;99.90;;;;;;5133587;27;20442;-63
2023/01/30 04:44:28;;;;;;;26.88;5.38;;;6.30;99.90;;;;;;5132985;27;20126;-61
2023/01/30 04:46:54;;;;;;;31.67;5.53;;;6.30;99.90;;;;;;5133381;27;20083;-62
2023/01/30 04:49:20;;;;;;;28.10;5.10;;;6.30;99.90;;;;;;5133361;27;20038;-62
2023/01/30 04:51:45;;;;;;;29.85;4.75;;;6.30;99.90;;;;;;5132978;27;20091;-62
2023/01/30 04:54:11;;;;;;;29.65;4.47;;;6.30;99.90;;;;;;5114777;27;20043;-62
2023/01/30 04:56:37;;;;;;;24.38;5.20;;;6.40;99.90;;;;;;5118850;27;20047;-62
2023/01/30 04:59:02;;;;;;;29.13;4.63;;;6.30;99.90;;;;;;5132894;27;20400;-61
2023/01/30 05:01:37;;;;;;;22.67;4.78;;;6.30;99.90;;;;;;5133223;27;20046;-62
2023/01/30 05:04:04;;;;;;;24.25;5.40;;;6.20;99.90;;;;;;5132805;27;20046;-61
2023/01/30 05:06:30;;;;;;;27.95;4.45;;;6.30;99.90;;;;;;5132907;27;20493;-62
2023/01/30 05:08:57;;;;;;;25.25;4.22;;;6.20;99.90;;;;;;5132762;27;20469;-62
2023/01/30 05:11:24;;;;;;;25.55;4.22;;;6.20;99.90;;;;;;5114454;27;20528;-61
2023/01/30 05:13:50;;;;;;;29.35;4.50;;;6.20;99.90;;;;;;5132812;27;20114;-62
2023/01/30 05:16:17;;;;;;;24.15;4.82;;;6.10;99.90;;;;;;5132927;27;20047;-62
2023/01/30 05:18:43;;;;;;;29.35;4.57;;;6.20;99.90;;;;;;5132800;27;20039;-62
2023/01/30 05:21:21;;;;;;;21.48;4.93;;;6.10;99.90;;;;;;5132643;27;20401;-61
2023/01/30 05:23:46;;;;;;;24.42;4.63;;;6.00;99.90;;;;;;5114731;27;20151;-62
2023/01/30 05:26:13;;;;;;;27.85;4.57;;;6.00;99.90;;;;;;5114425;27;20059;-61
2023/01/30 05:28:39;;;;;;;28.58;5.82;;;5.90;99.90;;;;;;5132926;27;20091;-61
2023/01/30 05:31:12;;;;;;;29.45;4.30;;;6.00;99.90;;;;;;5118123;27;20031;-62
2023/01/30 05:33:38;;;;;;;30.77;4.47;;;5.90;99.90;;;;;;5132503;27;20035;-61
2023/01/30 05:36:05;;;;;;;19.85;3.83;;;5.90;99.90;;;;;;5132375;27;20064;-62
2023/01/30 05:38:31;;;;;;;28.33;5.18;;;5.90;99.90;;;;;;5132772;28;20043;-62
2023/01/30 05:41:05;;;;;;;27.38;5.35;;;6.00;99.90;;;;;;5131800;27;20039;-62
2023/01/30 05:43:31;;;;;;;28.77;5.35;;;6.00;99.90;;;;;;5132362;28;20388;-61
2023/01/30 05:45:59;;;;;;;22.70;4.28;;;5.90;99.90;;;;;;5132195;28;20047;-61
2023/01/30 05:48:25;;;;;;;26.70;4.68;;;5.90;99.90;;;;;;5132477;28;20401;-61
2023/01/30 05:50:51;;;;;;;30.40;4.78;;;5.80;99.90;;;;;;5132462;28;20046;-62
2023/01/30 05:53:18;;;;;;;23.13;3.78;;;5.90;99.90;;;;;;5114264;28;20038;-61
2023/01/30 05:55:43;;;;;;;30.88;4.80;;;5.90;99.90;;;;;;5125550;28;20066;-62
2023/01/30 05:58:10;;;;;;;29.15;4.40;;;5.80;99.90;;;;;;5124845;28;20078;-62
2023/01/30 06:00:35;;;;;;;26.23;3.95;;;5.90;99.90;;;;;;5132262;28;20039;-61
2023/01/30 06:03:01;;;;;;;26.50;4.82;;;6.00;99.90;;;;;;5132131;28;20060;-62
2023/01/30 06:05:26;;;;;;;28.98;4.45;;;6.00;99.90;;;;;;5132352;28;20035;-62
2023/01/30 06:07:52;;;;;;;32.95;4.82;;;5.90;99.90;;;;;;5132752;28;20039;-61
2023/01/30 06:10:18;;;;;;;25.27;3.83;;;6.00;99.90;;;;;;5114066;28;20039;-62
2023/01/30 06:12:43;;;;;;;22.20;4.25;;;5.90;99.90;;;;;;5132252;28;20031;-62
2023/01/30 06:15:10;;;;;;;30.63;5.75;;;6.00;99.90;;;;;;5119242;28;20040;-62
2023/01/30 06:17:35;;;;;;;24.63;4.22;;;6.00;99.90;;;;;;5130698;28;20408;-62
2023/01/30 06:20:01;;;;;;;25.00;4.07;;;6.00;99.90;;;;;;5113706;28;20039;-62
2023/01/30 06:22:26;;;;;;;25.58;4.45;;;6.10;99.90;;;;;;5131904;28;20035;-62
2023/01/30 06:24:52;;;;;;;21.17;3.90;;;6.20;99.90;;;;;;5132060;28;20027;-62
2023/01/30 06:27:18;;;;;;;28.20;4.85;;;6.10;99.90;;;;;;5132072;28;20039;-62
2023/01/30 06:29:43;;;;;;;34.00;5.57;;;6.20;99.90;;;;;;5132008;28;20035;-61
2023/01/30 06:32:09;;;;;;;31.08;4.88;;;6.30;99.90;;;;;;5131957;28;20065;-62
2023/01/30 06:34:35;;;;;;;22.73;4.40;;;6.20;99.90;;;;;;5131972;28;20477;-62
2023/01/30 06:37:00;;;;;;;25.33;4.95;;;6.20;99.90;;;;;;5132216;28;20035;-62
2023/01/30 06:39:26;;;;;;;31.88;4.72;;;6.20;99.90;;;;;;5132004;28;20039;-62
2023/01/30 06:41:52;;;;;;;28.95;4.15;;;6.20;99.90;;;;;;5132059;28;20051;-61
2023/01/30 06:44:17;;;;;;;23.63;3.95;;;6.30;99.90;;;;;;5131388;28;20047;-62
2023/01/30 06:46:43;;;;;;;31.77;5.18;;;6.20;99.90;;;;;;5124098;28;20064;-61
2023/01/30 06:49:09;;;;;;;24.38;4.90;;;6.20;99.90;;;;;;5126176;28;20471;-62
2023/01/30 06:51:34;;;;;;;34.78;5.40;;;6.30;99.90;;;;;;5132207;27;20039;-62
2023/01/30 06:54:00;;;;;;;29.20;5.15;;;6.20;99.90;;;;;;5135608;27;20080;-62
2023/01/30 06:56:25;;;;;;;28.00;4.43;;;6.20;99.90;;;;;;5122667;27;20040;-62
2023/01/30 06:58:51;;;;;;;31.20;5.93;;;6.30;99.90;;;;;;5133725;27;20078;-62
2023/01/30 07:01:17;;;;;;;27.10;6.93;;;6.30;99.90;;;;;;5135515;27;20034;-62
2023/01/30 07:03:43;;;;;;;32.85;5.43;;;6.30;99.90;;;;;;5135339;27;20035;-62
2023/01/30 07:06:09;;;;;;;26.10;4.72;;;6.30;99.90;;;;;;5135065;27;20039;-62
2023/01/30 07:08:34;;;;;;;35.20;5.72;;;6.30;99.90;;;;;;5135013;27;20071;-61
2023/01/30 07:11:00;;;;;;;27.83;4.50;;;6.30;99.90;;;;;;5135195;27;20035;-62
2023/01/30 07:13:26;;;;;;;17.27;4.57;;;6.30;99.90;;;;;;5135158;27;20128;-62
2023/01/30 07:15:51;;;;;;;31.98;5.35;;;6.40;99.90;;;;;;5134853;27;20532;-62
2023/01/30 07:18:17;;;;;;;28.38;4.65;;;6.40;99.90;;;;;;5134969;27;20485;-62
2023/01/30 07:20:49;;;;;;;23.67;4.90;;;6.40;99.90;;;;;;5134898;27;20165;-62
2023/01/30 07:23:14;;;;;;;27.17;4.40;;;6.30;99.90;;;;;;5116097;27;20461;-61
2023/01/30 07:25:40;;;;;;;29.35;5.47;;;6.40;99.90;;;;;;5134580;27;20027;-62
2023/01/30 07:28:06;;;;;;;30.33;4.60;;;6.40;99.90;;;;;;5134700;27;20075;-62
2023/01/30 07:30:34;;;;;;;28.17;5.55;;;6.40;99.90;;;;;;5116417;27;20043;-61
2023/01/30 07:33:02;;;;;;;30.95;5.50;;;6.30;99.90;;;;;;5134753;27;20091;-61
2023/01/30 07:35:32;;;;;;;28.27;6.45;;;6.40;99.90;;;;;;5134833;27;20035;-62
2023/01/30 07:37:58;;;;;;;26.25;4.80;;;6.50;99.90;;;;;;5134405;27;20038;-62
2023/01/30 07:40:24;;;;;;;27.30;3.97;;;6.50;99.90;;;;;;5134607;27;20031;-61
2023/01/30 07:43:06;;;;;;;27.15;5.63;;;6.40;99.90;;;;;;5134257;27;20172;-62
2023/01/30 07:45:43;;;;;;;27.27;6.35;;;6.40;99.90;;;;;;5120415;27;20039;-62
2023/01/30 07:48:11;;;;;;;26.38;5.00;;;6.80;99.90;;;;;;5134379;27;20039;-62
2023/01/30 07:50:37;;;;;;;24.25;3.83;;;6.50;99.90;;;;;;5134275;27;20038;-61
2023/01/30 07:53:04;;;;;;;31.75;5.35;;;6.50;99.90;;;;;;5115107;27;20047;-61
2023/01/30 07:55:30;;;;;;;19.80;4.00;;;6.50;99.90;;;;;;5129142;27;20032;-62
2023/01/30 07:57:56;;;;;;;24.60;4.18;;;6.50;99.90;;;;;;5124701;27;20370;-61
2023/01/30 08:00:21;;;;;;;24.88;4.25;;;6.60;99.90;;;;;;5133927;27;20039;-62
2023/01/30 08:02:47;;;;;;;25.52;4.57;;;6.60;99.90;;;;;;5125159;27;20031;-61
2023/01/30 08:05:13;;;;;;;25.02;4.65;;;6.50;99.90;;;;;;5127471;27;20122;-61
2023/01/30 08:07:39;;;;;;;26.40;5.30;;;6.60;99.90;;;;;;5133729;27;20069;-63
2023/01/30 08:10:05;;;;;;;24.98;4.93;;;6.60;99.90;;;;;;5134137;27;20043;-61
2023/01/30 08:12:31;;;;;;;29.70;4.68;;;6.60;99.90;;;;;;5134026;27;20366;-61
2023/01/30 08:14:56;;;;;;;32.33;5.88;;;6.60;99.90;;;;;;5133755;27;20085;-62
2023/01/30 08:17:22;;;;;;;28.65;4.15;;;6.60;99.90;;;;;;5133966;27;20050;-62
2023/01/30 08:19:48;;;;;;;28.92;4.78;;;6.70;99.90;;;;;;5133983;27;20027;-62
2023/01/30 08:22:14;;;;;;;30.20;4.38;;;6.60;99.90;;;;;;5133574;27;20038;-62
2023/01/30 08:24:39;;;;;;;26.52;4.75;;;6.70;99.90;;;;;;5115056;27;20485;-61
2023/01/30 08:27:05;;;;;;;24.73;4.47;;;6.70;99.90;;;;;;5114805;27;20134;-62
2023/01/30 08:29:30;;;;;;;22.15;4.72;;;6.70;99.90;;;;;;5133448;27;20522;-61
2023/01/30 08:31:57;;;;;;;24.63;5.90;;;6.80;99.90;;;;;;5133375;27;20031;-62
2023/01/30 08:34:23;;;;;;;34.75;5.60;;;6.70;99.90;;;;;;5133495;27;20530;-62
2023/01/30 08:36:49;;;;;;;28.27;5.15;;;6.80;99.90;;;;;;5133398;27;20047;-62
2023/01/30 08:39:14;;;;;;;26.85;4.80;;;6.80;99.90;;;;;;5133129;27;20035;-62
2023/01/30 08:41:42;;;;;;;33.50;6.85;;;6.80;99.90;;;;;;5133405;27;20084;-62
2023/01/30 08:44:11;;;;;;;35.53;4.65;;;6.90;99.90;;;;;;5132908;27;20065;-61
2023/01/30 08:46:38;;;;;;;26.08;5.43;;;6.80;99.90;;;;;;5133457;27;20123;-62
2023/01/30 08:49:04;;;;;;;32.35;6.22;;;6.80;99.90;;;;;;5132072;27;20039;-62
2023/01/30 08:51:30;;;;;;;34.10;5.78;;;6.90;99.90;;;;;;5133227;27;20046;-62
2023/01/30 08:53:56;;;;;;;24.67;4.85;;;6.90;99.90;;;;;;5114990;27;20031;-61
2023/01/30 08:56:21;;;;;;;26.58;3.92;;;7.00;99.90;;;;;;5121008;27;20461;-62
2023/01/30 08:58:48;;;;;;;30.88;6.18;;;7.00;99.90;;;;;;5130592;27;20534;-61
2023/01/30 09:01:14;;;;;;;29.20;5.72;;;7.10;99.90;;;;;;5114445;27;20137;-63
2023/01/30 09:03:40;;;;;;;26.88;4.63;;;7.10;99.90;;;;;;5114358;27;20043;-62
2023/01/30 09:06:06;;;;;;;26.80;4.32;;;7.10;99.90;;;;;;5114780;27;20046;-62
2023/01/30 09:08:31;;;;;;;30.95;4.72;;;7.10;99.90;;;;;;5118427;27;20490;-62
2023/01/30 09:10:59;;;;;;;31.17;5.20;;;7.10;99.90;;;;;;5148963;27;20034;-62
2023/01/30 09:13:24;;;;;;;27.90;5.30;;;7.00;99.90;;;;;;5132794;27;20095;-62
2023/01/30 09:15:50;;;;;;;32.45;5.25;;;7.00;99.90;;;;;;5131759;27;20042;-61
2023/01/30 09:18:16;;;;;;;26.08;4.55;;;7.00;99.90;;;;;;5133012;27;20764;-61
2023/01/30 09:20:41;;;;;;;27.40;5.05;;;7.10;99.90;;;;;;5132505;27;20061;-61
2023/01/30 09:23:07;;;;;;;21.20;4.88;;;7.10;99.90;;;;;;5132647;27;20495;-61
2023/01/30 09:25:32;;;;;;;24.48;5.00;;;7.10;99.90;;;;;;5132577;27;20031;-61
2023/01/30 09:27:58;;;;;;;25.80;5.15;;;7.10;99.90;;;;;;5132859;27;20039;-61
2023/01/30 09:30:24;;;;;;;30.90;5.35;;;7.10;99.90;;;;;;5132615;27;20050;-61
2023/01/30 09:32:50;;;;;;;26.98;4.65;;;7.10;99.90;;;;;;5117974;28;20372;-61
2023/01/30 09:35:16;;;;;;;38.60;6.65;;;7.10;99.90;;;;;;5132493;27;20087;-62
2023/01/30 09:37:52;;;;;;;34.47;5.47;;;7.00;99.90;;;;;;5132595;27;20429;-62
2023/01/30 09:40:25;;;;;;;25.27;5.70;;;6.90;99.90;;;;;;5132914;28;20088;-61
2023/01/30 09:43:10;;;;;;;35.85;5.68;;;6.80;99.90;;;;;;5132428;28;20101;-61
2023/01/30 09:45:53;;;;;;;35.17;5.72;;;6.80;99.90;;;;;;5132308;28;20059;-61
2023/01/30 09:48:38;;;;;;;30.95;5.35;;;6.90;99.90;;;;;;5132302;28;20397;-62
2023/01/30 09:51:54;;;;;;;29.05;6.13;;;7.00;99.90;;;;;;5116000;28;20115;-61
2023/01/30 09:54:28;;;;;;;26.17;4.53;;;7.10;99.90;;;;;;5049192;28;20045;-62
2023/01/30 09:57:17;;;;;;;25.42;4.90;;;7.20;99.90;;;;;;5048929;28;20041;-62
2023/01/30 09:59:43;;;;;;;26.27;4.43;;;7.20;99.90;;;;;;5049059;28;20395;-61
2023/01/30 10:02:23;;;;;;;31.10;5.25;;;7.40;99.90;;;;;;5048719;28;20044;-61
2023/01/30 10:04:49;;;;;;;22.48;4.40;;;7.40;99.90;;;;;;5032247;28;20095;-62
2023/01/30 10:07:43;;;;;;;28.20;4.82;;;7.50;99.90;;;;;;5048804;28;20041;-61
2023/01/30 10:10:15;;;;;;;25.20;4.18;;;7.40;99.90;;;;;;5048994;28;20037;-61
2023/01/30 10:12:46;;;;;;;25.77;4.57;;;7.50;99.90;;;;;;5048825;28;20037;-61
2023/01/30 10:15:41;;;;;;;26.48;5.28;;;7.50;99.90;;;;;;5048906;28;20123;-61
2023/01/30 10:18:33;;;;;;;28.05;5.68;;;7.60;99.90;;;;;;5048838;28;20087;-62
2023/01/30 10:21:01;;;;;;;27.23;4.47;;;7.60;99.90;;;;;;5062583;28;20057;-61
2023/01/30 10:23:32;;;;;;;31.38;8.13;;;7.90;99.90;;;;;;5048649;28;20048;-61
2023/01/30 10:26:09;;;;;;;44.45;6.55;;;7.80;99.90;;;;;;5048611;28;20037;-61
2023/01/30 10:28:41;;;;;;;10.88;2.60;;;7.60;99.90;;;;;;5052212;28;20391;-62
2023/01/30 10:31:14;;;;;;;17.50;3.88;;;7.50;99.90;;;;;;5097795;27;20038;-62
2023/01/30 10:33:59;;;;;;;8.95;1.65;;;7.30;99.90;;;;;;5117382;27;20385;-62
2023/01/30 10:36:35;;;;;;;10.77;1.00;;;7.00;99.90;;;;;;5135953;27;20035;-62
2023/01/30 10:39:08;;;;;;;4.07;0.82;;;6.50;99.90;;;;;;5135850;27;20396;-61
2023/01/30 10:41:40;;;;;;;5.85;1.10;;;6.40;99.90;;;;;;5117301;27;20089;-61
2023/01/30 10:44:12;;;;;;;5.55;0.80;;;6.30;99.90;;;;;;5135122;27;20054;-62
2023/01/30 10:47:14;;;;;;;8.63;1.10;;;6.30;99.90;;;;;;5135597;27;20419;-61
2023/01/30 10:49:44;;;;;;;6.50;1.30;;;6.50;99.90;;;;;;5123098;27;20031;-61
2023/01/30 10:52:18;;;;;;;7.45;1.27;;;6.70;99.90;;;;;;5135191;27;20031;-61
2023/01/30 10:54:53;;;;;;;13.05;2.20;;;6.90;99.90;;;;;;5135688;27;20496;-61
2023/01/30 10:58:01;;;;;;;11.63;2.80;;;7.00;99.90;;;;;;5121332;27;20039;-61
2023/01/30 11:00:41;;;;;;;16.45;2.55;;;7.20;99.90;;;;;;5117316;27;20110;-62
2023/01/30 11:03:38;;;;;;;13.20;2.17;;;7.20;99.90;;;;;;5116171;27;20055;-62
2023/01/30 11:06:17;;;;;;;17.65;3.20;;;7.40;99.90;;;;;;5122928;27;20042;-61
2023/01/30 11:08:43;;;;;;;17.10;3.63;;;7.50;99.90;;;;;;5116555;27;20039;-61
2023/01/30 11:11:26;;;;;;;17.00;3.00;;;7.60;99.90;;;;;;5116858;27;20397;-62
2023/01/30 11:14:05;;;;;;;22.65;3.83;;;7.80;99.90;;;;;;5134743;27;20039;-62
2023/01/30 11:16:39;;;;;;;21.67;3.97;;;8.00;99.90;;;;;;5135010;27;20066;-61
2023/01/30 11:19:05;;;;;;;16.98;4.03;;;8.10;99.90;;;;;;5134831;27;20459;-61
2023/01/30 11:21:32;;;;;;;15.25;2.90;;;8.20;99.90;;;;;;5134677;27;20500;-62
2023/01/30 11:24:05;;;;;;;16.20;3.50;;;8.20;99.90;;;;;;5134796;27;20075;-61
2023/01/30 11:26:36;;;;;;;20.98;3.65;;;8.30;99.90;;;;;;5134884;27;20102;-62
2023/01/30 11:29:29;;;;;;;16.80;3.45;;;8.50;99.90;;;;;;5116144;27;20054;-61
2023/01/30 11:31:55;;;;;;;17.85;3.80;;;8.50;99.90;;;;;;5134701;27;20035;-62
2023/01/30 11:34:24;;;;;;;19.95;4.40;;;8.40;99.90;;;;;;5116205;27;20043;-61
2023/01/30 11:36:50;;;;;;;16.50;3.73;;;8.40;99.90;;;;;;5116470;27;20035;-61
2023/01/30 11:39:21;;;;;;;14.52;3.28;;;8.40;99.90;;;;;;5133393;27;20050;-62
2023/01/30 11:41:56;;;;;;;22.13;3.85;;;8.50;99.90;;;;;;5115466;27;20047;-62
2023/01/30 11:44:29;;;;;;;17.85;3.58;;;8.60;99.90;;;;;;5134319;27;20134;-62
2023/01/30 11:47:03;;;;;;;17.83;3.25;;;8.60;99.90;;;;;;5134175;27;20035;-62
2023/01/30 11:49:36;;;;;;;19.48;4.10;;;8.50;99.90;;;;;;5115997;27;20084;-63
2023/01/30 11:52:04;;;;;;;25.17;4.25;;;8.60;99.90;;;;;;5134250;27;20067;-61
2023/01/30 11:54:48;;;;;;;19.90;3.65;;;8.60;99.90;;;;;;5134025;27;20038;-61
2023/01/30 11:57:16;;;;;;;20.75;3.10;;;8.90;99.90;;;;;;5101675;27;20082;-62
2023/01/30 11:59:57;;;;;;;17.75;2.80;;;8.80;99.90;;;;;;5115355;27;20125;-62
2023/01/30 12:02:36;;;;;;;17.20;3.40;;;8.70;99.90;;;;;;5134076;27;20088;-62
2023/01/30 12:05:15;;;;;;;17.83;3.17;;;8.70;99.90;;;;;;5134264;27;20035;-62
2023/01/30 12:07:45;;;;;;;20.97;3.63;;;8.80;99.90;;;;;;5134292;27;20084;-61
2023/01/30 12:10:23;;;;;;;18.75;3.53;;;8.70;99.90;;;;;;5134038;27;20039;-61
2023/01/30 12:12:51;;;;;;;14.00;3.65;;;8.50;99.90;;;;;;5120833;27;20409;-61
2023/01/30 12:15:30;;;;;;;14.32;3.75;;;8.70;99.90;;;;;;5133455;27;20389;-62
2023/01/30 12:17:55;;;;;;;17.92;3.25;;;8.80;99.90;;;;;;5120703;27;20054;-61
2023/01/30 12:20:27;;;;;;;24.55;3.75;;;8.90;99.90;;;;;;5133724;27;20485;-61
2023/01/30 12:23:15;;;;;;;15.18;3.83;;;9.10;99.90;;;;;;5119497;27;20370;-62
2023/01/30 12:26:02;;;;;;;18.63;3.53;;;9.10;99.90;;;;;;5133553;27;20035;-61
2023/01/30 12:29:12;;;;;;;24.60;5.00;;;8.90;99.90;;;;;;5133536;27;20035;-62
2023/01/30 12:31:49;;;;;;;26.65;4.72;;;9.10;99.90;;;;;;5129337;27;20092;-62
2023/01/30 12:34:14;;;;;;;24.67;4.85;;;9.00;99.90;;;;;;5133488;27;20047;-61
2023/01/30 12:37:03;;;;;;;27.73;4.53;;;9.00;99.90;;;;;;5133379;27;20433;-61
2023/01/30 12:39:58;;;;;;;23.15;6.15;;;8.90;99.90;;;;;;5132455;27;20046;-62
2023/01/30 12:42:55;;;;;;;28.25;5.03;;;9.10;99.90;;;;;;5131635;27;20450;-61
2023/01/30 12:46:04;;;;;;;25.10;4.75;;;9.10;99.90;;;;;;5008967;28;20087;-62
2023/01/30 12:48:52;;;;;;;20.52;3.58;;;9.10;99.90;;;;;;4971289;28;20493;-61
2023/01/30 12:51:48;;;;;;;20.48;4.50;;;8.90;99.90;;;;;;4970893;28;20054;-62
2023/01/30 12:54:50;;;;;;;25.95;4.97;;;8.90;99.90;;;;;;4965424;28;20489;-61
2023/01/30 12:57:18;;;;;;;24.52;4.65;;;8.80;99.90;;;;;;4970962;28;20051;-61
2023/01/30 12:59:49;;;;;;;28.23;4.57;;;8.80;99.90;;;;;;4954999;28;20094;-61
2023/01/30 13:02:39;;;;;;;23.20;3.55;;;8.70;99.90;;;;;;4971180;28;20568;-61
2023/01/30 13:05:20;;;;;;;30.20;5.25;;;8.80;99.90;;;;;;4971086;28;20145;-62
2023/01/30 13:08:14;;;;;;;21.88;3.92;;;8.70;99.90;;;;;;4970998;28;20073;-61
2023/01/30 13:11:07;;;;;;;19.13;4.15;;;8.70;99.90;;;;;;4911299;29;20159;-62
2023/01/30 13:13:41;;;;;;;20.20;3.65;;;8.70;99.90;;;;;;4913454;29;20044;-62
2023/01/30 13:16:15;;;;;;;16.80;4.55;;;8.60;99.90;;;;;;4913416;29;20088;-62